Time;durP1;ratioP1;P1;durP2;ratioP2;P2;SDS_P1;SDS_P2;PMS_P1;PMS_P2;Temp;Humidity;BMP_temperature;BMP_pressure;BME280_temperature;BME280_humidity;BME280_pressure;Samples;Min_cycle;Max_cycle;Signal;HPM_P1;HPM_P2
2021/01/12 00:00:28;;;;;;;8.68;0.45;;;5.80;99.90;;;;;;5026562;28;20061;-86
2021/01/12 00:02:55;;;;;;;0.00;0.00;;;5.90;99.90;;;;;;5026958;28;20128;-85
2021/01/12 00:05:21;;;;;;;0.10;0.10;;;5.90;99.90;;;;;;5026552;28;20052;-86
2021/01/12 00:07:47;;;;;;;0.50;0.50;;;5.90;99.90;;;;;;5026642;28;20057;-85
2021/01/12 00:10:14;;;;;;;0.32;0.20;;;5.90;99.90;;;;;;5043215;28;20051;-85
2021/01/12 00:12:39;;;;;;;0.00;0.00;;;5.90;99.90;;;;;;5026686;28;20080;-87
2021/01/12 00:15:06;;;;;;;0.00;0.00;;;5.90;99.90;;;;;;5026687;28;20188;-84
2021/01/12 00:17:32;;;;;;;1.75;1.20;;;5.90;99.90;;;;;;5025304;28;20038;-86
2021/01/12 00:19:58;;;;;;;0.17;0.17;;;6.00;99.90;;;;;;5026159;28;20405;-85
2021/01/12 00:22:23;;;;;;;2.38;0.20;;;6.00;99.90;;;;;;5041901;28;20034;-85
2021/01/12 00:24:50;;;;;;;1.20;0.20;;;6.00;99.90;;;;;;5026007;28;20470;-84
2021/01/12 00:27:19;;;;;;;0.00;0.00;;;6.00;99.90;;;;;;5025933;28;20049;-85
2021/01/12 00:29:45;;;;;;;0.00;0.00;;;6.10;99.90;;;;;;5027030;28;20038;-85
2021/01/12 00:32:20;;;;;;;0.50;0.10;;;6.00;99.90;;;;;;5042234;28;20073;-84
2021/01/12 00:34:46;;;;;;;0.13;0.13;;;6.10;99.90;;;;;;5042366;28;20038;-85
2021/01/12 00:37:15;;;;;;;0.50;0.43;;;6.00;99.90;;;;;;5025855;28;20042;-85
2021/01/12 00:39:41;;;;;;;0.38;0.38;;;6.10;99.90;;;;;;5025823;28;20080;-86
2021/01/12 00:42:06;;;;;;;0.38;0.20;;;6.10;99.90;;;;;;5025879;28;20038;-85
2021/01/12 00:44:32;;;;;;;0.73;0.40;;;6.00;99.90;;;;;;5009535;28;20474;-86
2021/01/12 00:46:58;;;;;;;0.00;0.00;;;6.00;99.90;;;;;;5019050;28;20034;-86
2021/01/12 00:49:24;;;;;;;0.38;0.20;;;6.10;99.90;;;;;;5028214;28;20054;-86
2021/01/12 00:51:53;;;;;;;1.27;0.28;;;6.00;99.90;;;;;;5042887;28;20494;-85
2021/01/12 00:54:23;;;;;;;0.00;0.00;;;6.00;99.90;;;;;;5025405;28;20053;-86
2021/01/12 00:56:50;;;;;;;0.10;0.10;;;6.00;99.90;;;;;;5041903;28;20044;-86
2021/01/12 00:59:16;;;;;;;0.10;0.00;;;6.00;99.90;;;;;;5041970;28;20073;-86
2021/01/12 01:01:43;;;;;;;0.00;0.00;;;6.00;99.90;;;;;;5025478;28;20371;-86
2021/01/12 01:04:10;;;;;;;0.17;0.05;;;6.00;99.90;;;;;;5042034;28;20061;-84
2021/01/12 01:06:36;;;;;;;0.00;0.00;;;6.10;99.90;;;;;;5025406;28;20497;-85
2021/01/12 01:09:02;;;;;;;0.00;0.00;;;6.00;99.90;;;;;;5008700;28;20038;-86
2021/01/12 01:11:27;;;;;;;0.00;0.00;;;6.10;99.90;;;;;;5008683;28;20065;-86
2021/01/12 01:13:53;;;;;;;0.08;0.00;;;6.00;99.90;;;;;;5041841;28;20041;-85
2021/01/12 01:16:19;;;;;;;0.00;0.00;;;6.10;99.90;;;;;;5008511;28;20046;-84
2021/01/12 01:18:45;;;;;;;0.00;0.00;;;6.00;99.90;;;;;;5024876;28;20057;-85
2021/01/12 01:21:13;;;;;;;0.20;0.20;;;6.00;99.90;;;;;;5025392;28;20053;-85
2021/01/12 01:23:40;;;;;;;2.80;0.85;;;6.00;99.90;;;;;;5025012;28;20042;-85
2021/01/12 01:26:06;;;;;;;0.00;0.00;;;6.00;99.90;;;;;;5024853;28;20061;-86
2021/01/12 01:28:32;;;;;;;0.00;0.00;;;6.00;99.90;;;;;;5025213;28;20030;-86
2021/01/12 01:30:57;;;;;;;2.08;0.38;;;6.10;99.90;;;;;;5026805;28;20438;-86
2021/01/12 01:33:23;;;;;;;0.00;0.00;;;6.00;99.90;;;;;;5043391;28;20049;-89
2021/01/12 01:35:49;;;;;;;0.00;0.00;;;6.00;99.90;;;;;;5012656;28;20043;-85
2021/01/12 01:38:14;;;;;;;0.65;0.65;;;6.00;99.90;;;;;;5045107;28;20042;-86
2021/01/12 01:40:40;;;;;;;0.00;0.00;;;6.10;99.90;;;;;;5045568;28;20080;-85
2021/01/12 01:43:06;;;;;;;0.00;0.00;;;6.00;99.90;;;;;;5012334;28;20038;-85
2021/01/12 01:45:52;;;;;;;0.00;0.00;;;6.10;99.90;;;;;;5045395;28;20038;-84
2021/01/12 01:48:20;;;;;;;0.10;0.00;;;6.10;99.90;;;;;;4975114;28;20072;-85
2021/01/12 01:50:45;;;;;;;0.05;0.00;;;6.10;99.90;;;;;;4972237;28;20046;-87
2021/01/12 01:53:11;;;;;;;0.00;0.00;;;6.00;99.90;;;;;;4988418;28;20050;-87
2021/01/12 01:55:39;;;;;;;0.00;0.00;;;6.10;99.90;;;;;;4988929;28;20106;-86
2021/01/12 01:58:06;;;;;;;0.10;0.10;;;6.20;99.90;;;;;;4972417;28;20053;-85
2021/01/12 02:00:35;;;;;;;0.00;0.00;;;6.20;99.90;;;;;;4972490;28;20057;-86
2021/01/12 02:03:14;;;;;;;0.00;0.00;;;6.10;99.90;;;;;;4972242;28;20038;-85
2021/01/12 02:05:41;;;;;;;0.00;0.00;;;6.10;99.90;;;;;;4988152;28;20043;-86
2021/01/12 02:08:11;;;;;;;0.10;0.00;;;6.20;99.90;;;;;;4972459;28;20047;-86
2021/01/12 02:10:42;;;;;;;0.00;0.00;;;6.20;99.90;;;;;;4972225;28;20510;-85
2021/01/12 02:13:13;;;;;;;0.00;0.00;;;6.20;99.90;;;;;;4971986;28;20043;-85
2021/01/12 02:15:39;;;;;;;4.65;1.27;;;6.20;99.90;;;;;;4971947;28;20074;-86
2021/01/12 02:18:06;;;;;;;0.00;0.00;;;6.20;99.90;;;;;;4988256;28;20223;-87
2021/01/12 02:20:33;;;;;;;0.00;0.00;;;6.20;99.90;;;;;;4971688;28;20087;-85
2021/01/12 02:23:31;;;;;;;0.00;0.00;;;6.20;99.90;;;;;;4971849;28;20106;-86
2021/01/12 02:25:57;;;;;;;0.10;0.00;;;6.20;99.90;;;;;;4981556;28;20042;-86
2021/01/12 02:28:25;;;;;;;0.00;0.00;;;6.20;99.90;;;;;;5008534;28;20097;-87
2021/01/12 02:30:51;;;;;;;0.00;0.00;;;6.20;99.90;;;;;;5024728;28;20038;-86
2021/01/12 02:33:17;;;;;;;0.00;0.00;;;6.20;99.90;;;;;;5008483;28;20110;-87
2021/01/12 02:35:47;;;;;;;0.00;0.00;;;6.20;99.90;;;;;;5008671;28;20034;-86
2021/01/12 02:38:13;;;;;;;0.28;0.28;;;6.30;99.90;;;;;;5008278;28;20049;-87
2021/01/12 02:40:38;;;;;;;0.00;0.00;;;6.30;99.90;;;;;;5008307;28;20046;-86
2021/01/12 02:43:04;;;;;;;0.00;0.00;;;6.30;99.90;;;;;;5008089;28;20038;-86
2021/01/12 02:45:50;;;;;;;0.00;0.00;;;6.30;99.90;;;;;;5023839;28;20034;-85
2021/01/12 02:48:18;;;;;;;0.00;0.00;;;6.30;99.90;;;;;;4971538;28;20244;-85
2021/01/12 02:50:43;;;;;;;0.00;0.00;;;6.30;99.90;;;;;;4974184;28;20043;-86
2021/01/12 02:53:09;;;;;;;0.00;0.00;;;6.30;99.90;;;;;;4987490;28;20045;-87
2021/01/12 02:55:34;;;;;;;0.00;0.00;;;6.30;99.90;;;;;;4987605;28;20039;-85
2021/01/12 02:58:00;;;;;;;0.00;0.00;;;6.40;99.90;;;;;;4987321;28;20031;-85
2021/01/12 03:00:26;;;;;;;0.00;0.00;;;6.40;99.90;;;;;;4987127;28;20124;-86
2021/01/12 03:02:51;;;;;;;0.00;0.00;;;6.30;99.90;;;;;;4987223;28;20137;-85
2021/01/12 03:05:17;;;;;;;0.00;0.00;;;6.40;99.90;;;;;;4987005;28;20050;-86
2021/01/12 03:07:42;;;;;;;0.00;0.00;;;6.40;99.90;;;;;;4970815;28;20122;-86
2021/01/12 03:10:08;;;;;;;0.65;0.35;;;6.40;99.90;;;;;;4986974;28;20106;-84
2021/01/12 03:12:34;;;;;;;0.00;0.00;;;6.50;99.90;;;;;;4986988;28;20099;-85
2021/01/12 03:14:59;;;;;;;0.00;0.00;;;6.50;99.90;;;;;;4987064;28;20163;-87
2021/01/12 03:17:25;;;;;;;0.00;0.00;;;6.50;99.90;;;;;;4970891;28;20039;-85
2021/01/12 03:19:50;;;;;;;0.75;0.10;;;6.50;99.90;;;;;;4986841;28;20050;-85
2021/01/12 03:22:16;;;;;;;0.00;0.00;;;6.50;99.90;;;;;;4970525;28;20034;-88
2021/01/12 03:24:42;;;;;;;0.73;0.10;;;6.60;99.90;;;;;;4993499;28;20069;-85
2021/01/12 03:27:07;;;;;;;0.13;0.00;;;6.60;99.90;;;;;;5007492;28;20042;-87
2021/01/12 03:29:33;;;;;;;0.00;0.00;;;6.60;99.90;;;;;;5023752;28;20042;-85
2021/01/12 03:31:59;;;;;;;0.55;0.30;;;6.60;99.90;;;;;;5007208;28;20046;-87
2021/01/12 03:34:25;;;;;;;0.00;0.00;;;6.60;99.90;;;;;;5007112;28;20049;-85
2021/01/12 03:36:51;;;;;;;0.10;0.10;;;6.60;99.90;;;;;;5006958;28;20070;-86
2021/01/12 03:39:17;;;;;;;0.00;0.00;;;6.60;99.90;;;;;;5007075;28;20050;-88
2021/01/12 03:41:43;;;;;;;0.00;0.00;;;6.70;99.90;;;;;;5007256;28;20070;-85
2021/01/12 03:44:08;;;;;;;0.00;0.00;;;6.70;99.90;;;;;;5023532;28;20080;-87
2021/01/12 03:46:34;;;;;;;0.45;0.10;;;6.70;99.90;;;;;;5006897;28;20046;-85
2021/01/12 03:49:00;;;;;;;0.00;0.00;;;6.70;99.90;;;;;;5025755;28;20056;-85
2021/01/12 03:51:26;;;;;;;0.20;0.20;;;6.80;99.90;;;;;;5043043;28;20113;-85
2021/01/12 03:53:52;;;;;;;0.63;0.05;;;6.80;99.90;;;;;;5026665;28;20069;-85
2021/01/12 03:56:18;;;;;;;0.20;0.00;;;6.80;99.90;;;;;;5010189;28;20117;-86
2021/01/12 03:58:43;;;;;;;0.00;0.00;;;6.80;99.90;;;;;;5025517;28;20048;-87
2021/01/12 04:01:10;;;;;;;0.00;0.00;;;6.80;99.90;;;;;;5010064;28;20041;-86
2021/01/12 04:03:36;;;;;;;0.15;0.15;;;6.80;99.90;;;;;;5043045;28;20038;-85
2021/01/12 04:06:03;;;;;;;0.05;0.05;;;6.90;99.90;;;;;;5026332;28;20042;-86
2021/01/12 04:08:29;;;;;;;0.25;0.13;;;6.90;99.90;;;;;;5042825;28;20482;-87
2021/01/12 04:10:55;;;;;;;0.00;0.00;;;7.00;99.90;;;;;;5042680;28;20061;-85
2021/01/12 04:13:21;;;;;;;0.47;0.45;;;7.00;99.90;;;;;;5027437;28;20038;-86
2021/01/12 04:15:47;;;;;;;0.00;0.00;;;6.90;99.90;;;;;;5026004;28;20057;-86
2021/01/12 04:18:25;;;;;;;0.00;0.00;;;6.90;99.90;;;;;;5103715;27;20368;-86
2021/01/12 04:20:51;;;;;;;0.00;0.00;;;7.00;99.90;;;;;;5102875;28;20454;-87
2021/01/12 04:23:16;;;;;;;0.00;0.00;;;6.90;99.90;;;;;;5085776;28;20048;-89
2021/01/12 04:25:42;;;;;;;0.30;0.30;;;6.90;99.90;;;;;;5102514;28;20050;-85
2021/01/12 04:28:07;;;;;;;0.00;0.00;;;6.90;99.90;;;;;;5102562;28;20062;-86
2021/01/12 04:30:33;;;;;;;0.00;0.00;;;6.90;99.90;;;;;;5085784;28;20024;-86
2021/01/12 04:32:59;;;;;;;0.00;0.00;;;6.90;99.90;;;;;;5085610;28;20046;-88
2021/01/12 04:35:24;;;;;;;0.00;0.00;;;6.90;99.90;;;;;;5085586;28;20057;-87
2021/01/12 04:37:50;;;;;;;0.00;0.00;;;7.00;99.90;;;;;;5085505;28;20046;-86
2021/01/12 04:40:15;;;;;;;0.10;0.10;;;7.00;99.90;;;;;;5085546;28;20054;-86
2021/01/12 04:42:42;;;;;;;0.10;0.00;;;7.00;99.90;;;;;;5085489;28;20032;-86
2021/01/12 04:45:08;;;;;;;0.47;0.20;;;7.00;99.90;;;;;;5085353;28;20126;-86
2021/01/12 04:47:34;;;;;;;0.10;0.00;;;7.00;99.90;;;;;;5114779;28;20039;-86
2021/01/12 04:50:01;;;;;;;0.00;0.00;;;7.00;99.90;;;;;;5094044;28;20029;-88
2021/01/12 04:52:27;;;;;;;1.05;0.10;;;7.00;99.90;;;;;;5068242;28;20115;-85
2021/01/12 04:54:53;;;;;;;0.03;0.00;;;7.00;99.90;;;;;;5085620;28;20020;-89
2021/01/12 04:57:19;;;;;;;0.00;0.00;;;7.10;99.90;;;;;;5085123;28;20064;-86
2021/01/12 04:59:45;;;;;;;0.00;0.00;;;7.10;99.90;;;;;;5085121;28;20036;-86
2021/01/12 05:02:14;;;;;;;0.13;0.00;;;7.10;99.90;;;;;;5084889;28;20032;-87
2021/01/12 05:04:41;;;;;;;1.30;1.17;;;7.10;99.90;;;;;;5084735;28;20028;-86
2021/01/12 05:07:10;;;;;;;0.20;0.20;;;7.10;99.90;;;;;;5084958;28;20032;-86
2021/01/12 05:09:38;;;;;;;0.00;0.00;;;7.10;99.90;;;;;;5084668;28;20472;-87
2021/01/12 05:12:05;;;;;;;0.03;0.00;;;7.10;99.90;;;;;;5084666;28;20118;-86
2021/01/12 05:14:34;;;;;;;0.50;0.20;;;7.10;99.90;;;;;;5084562;28;20465;-85
2021/01/12 05:17:03;;;;;;;0.00;0.00;;;7.20;99.90;;;;;;5084100;28;20621;-85
2021/01/12 05:19:30;;;;;;;0.00;0.00;;;7.20;99.90;;;;;;5084603;28;20055;-86
2021/01/12 05:22:06;;;;;;;0.22;0.22;;;7.20;99.90;;;;;;5101222;28;20032;-86
2021/01/12 05:24:42;;;;;;;0.00;0.00;;;7.20;99.90;;;;;;5084531;28;20035;-86
2021/01/12 05:27:11;;;;;;;1.95;0.40;;;7.20;99.90;;;;;;5084293;28;20115;-85
2021/01/12 05:29:39;;;;;;;0.00;0.00;;;7.20;99.90;;;;;;5071403;28;20029;-86
2021/01/12 05:32:11;;;;;;;;;;;7.20;99.90;;;;;;5071199;28;20054;-86
2021/01/12 05:34:38;;;;;;;0.00;0.00;;;7.20;99.90;;;;;;5087765;28;20015;-86
2021/01/12 05:37:06;;;;;;;0.00;0.00;;;7.20;99.90;;;;;;5070950;28;20036;-87
2021/01/12 05:39:40;;;;;;;0.22;0.22;;;7.20;99.90;;;;;;5070599;28;20029;-85
2021/01/12 05:42:08;;;;;;;0.00;0.00;;;7.20;99.90;;;;;;5070627;28;20092;-86
2021/01/12 05:44:37;;;;;;;0.00;0.00;;;7.20;99.90;;;;;;5070724;28;20464;-87
2021/01/12 05:47:03;;;;;;;0.20;0.20;;;7.20;99.90;;;;;;5077621;28;20025;-86
2021/01/12 05:49:29;;;;;;;0.00;0.00;;;7.30;99.90;;;;;;5083849;28;20104;-86
2021/01/12 05:51:55;;;;;;;0.00;0.00;;;7.20;99.90;;;;;;5070618;28;20075;-86
2021/01/12 05:54:27;;;;;;;0.00;0.00;;;7.20;99.90;;;;;;5089409;28;20029;-86
2021/01/12 05:57:02;;;;;;;0.15;0.00;;;7.20;99.90;;;;;;5090587;28;20039;-88
2021/01/12 05:59:30;;;;;;;0.00;0.00;;;7.20;99.90;;;;;;5090802;28;20035;-87
2021/01/12 06:01:56;;;;;;;0.03;0.03;;;7.20;99.90;;;;;;5090686;28;20111;-87
2021/01/12 06:04:23;;;;;;;0.00;0.00;;;7.20;99.90;;;;;;5090675;28;20105;-87
2021/01/12 06:06:51;;;;;;;0.00;0.00;;;7.20;99.90;;;;;;5090633;28;20028;-86
2021/01/12 06:09:18;;;;;;;0.00;0.00;;;7.20;99.90;;;;;;5057929;28;20120;-86
2021/01/12 06:11:49;;;;;;;0.00;0.00;;;7.20;99.90;;;;;;5050050;28;20060;-86
2021/01/12 06:14:16;;;;;;;0.17;0.00;;;7.20;99.90;;;;;;5050218;28;20048;-87
2021/01/12 06:16:43;;;;;;;0.10;0.03;;;7.30;99.90;;;;;;5049690;28;20049;-91
2021/01/12 06:19:15;;;;;;;0.00;0.00;;;7.30;99.90;;;;;;5049646;28;20033;-87
2021/01/12 06:21:56;;;;;;;0.10;0.00;;;7.30;99.90;;;;;;5049856;28;20112;-88
2021/01/12 06:24:37;;;;;;;0.00;0.00;;;7.20;99.90;;;;;;5049708;28;20028;-90
2021/01/12 06:27:10;;;;;;;0.00;0.00;;;7.20;99.90;;;;;;5049781;28;20393;-88
2021/01/12 06:29:36;;;;;;;0.05;0.00;;;7.20;99.90;;;;;;5050186;28;20043;-88
2021/01/12 06:32:02;;;;;;;0.20;0.00;;;7.20;99.90;;;;;;5049737;28;20025;-87
2021/01/12 06:34:29;;;;;;;0.00;0.00;;;7.20;99.90;;;;;;5049863;28;20032;-86
2021/01/12 06:36:56;;;;;;;0.00;0.00;;;7.20;99.90;;;;;;5050147;28;20049;-88
2021/01/12 06:39:32;;;;;;;0.00;0.00;;;7.20;99.90;;;;;;5048967;28;20025;-88
2021/01/12 06:41:58;;;;;;;0.00;0.00;;;7.20;99.90;;;;;;5093854;28;20033;-88
2021/01/12 06:44:27;;;;;;;0.00;0.00;;;7.10;99.90;;;;;;5069954;28;20050;-88
2021/01/12 06:46:54;;;;;;;0.10;0.00;;;7.20;99.90;;;;;;5074700;28;20071;-87
2021/01/12 06:49:27;;;;;;;0.00;0.00;;;7.20;99.90;;;;;;5083674;28;20028;-88
2021/01/12 06:52:05;;;;;;;2.88;0.63;;;7.20;99.90;;;;;;5068990;28;20028;-89
2021/01/12 06:54:36;;;;;;;0.00;0.00;;;7.20;99.90;;;;;;5069555;28;20449;-89
2021/01/12 06:57:11;;;;;;;0.00;0.00;;;7.20;99.90;;;;;;5069460;28;20500;-88
2021/01/12 06:59:38;;;;;;;0.00;0.00;;;7.10;99.90;;;;;;5085811;28;20024;-87
2021/01/12 07:02:28;;;;;;;0.00;0.00;;;7.10;99.90;;;;;;5085787;28;20394;-89
2021/01/12 07:05:10;;;;;;;0.00;0.00;;;7.20;99.90;;;;;;5047348;28;20059;-89
2021/01/12 07:07:46;;;;;;;0.00;0.00;;;7.10;99.90;;;;;;5068830;28;20044;-89
2021/01/12 07:10:17;;;;;;;0.00;0.00;;;7.10;99.90;;;;;;5085736;28;20112;-89
2021/01/12 07:12:43;;;;;;;4.47;1.55;;;7.10;99.90;;;;;;5069050;28;20024;-89
2021/01/12 07:15:21;;;;;;;0.00;0.00;;;7.10;99.90;;;;;;5068826;28;20090;-89
2021/01/12 07:17:48;;;;;;;0.82;0.25;;;7.10;99.90;;;;;;5068684;28;20112;-90
2021/01/12 07:20:20;;;;;;;0.47;0.20;;;7.10;99.90;;;;;;5068650;28;20039;-88
2021/01/12 07:22:54;;;;;;;0.00;0.00;;;7.10;99.90;;;;;;5101824;28;20484;-87
2021/01/12 07:25:24;;;;;;;0.00;0.00;;;7.10;99.90;;;;;;5102583;28;20039;-87
2021/01/12 07:28:14;;;;;;;0.10;0.10;;;7.10;99.90;;;;;;5068567;28;20024;-87
2021/01/12 07:30:46;;;;;;;0.22;0.17;;;7.10;99.90;;;;;;5068405;28;20130;-87
2021/01/12 07:33:19;;;;;;;0.00;0.00;;;7.10;99.90;;;;;;5068454;28;20052;-88
2021/01/12 07:35:47;;;;;;;0.00;0.00;;;7.00;99.90;;;;;;5068417;28;20036;-88
2021/01/12 07:38:18;;;;;;;0.03;0.00;;;7.00;99.90;;;;;;5068640;28;20028;-89
2021/01/12 07:40:44;;;;;;;0.00;0.00;;;7.00;99.90;;;;;;5052210;28;20096;-88
2021/01/12 07:43:18;;;;;;;0.32;0.10;;;7.00;99.90;;;;;;5068331;28;20032;-88
2021/01/12 07:46:03;;;;;;;0.00;0.00;;;7.00;99.90;;;;;;5068352;28;20036;-88
2021/01/12 07:48:30;;;;;;;0.00;0.00;;;7.00;99.90;;;;;;5029920;28;20029;-88
2021/01/12 07:51:00;;;;;;;0.00;0.00;;;6.90;99.90;;;;;;5011974;28;20591;-88
2021/01/12 07:53:26;;;;;;;0.00;0.00;;;6.90;99.90;;;;;;5028081;28;20044;-87
2021/01/12 07:55:52;;;;;;;0.00;0.00;;;6.90;99.90;;;;;;5011151;28;20033;-88
2021/01/12 07:58:18;;;;;;;0.00;0.00;;;6.90;99.90;;;;;;5010881;28;20041;-87
2021/01/12 08:00:47;;;;;;;0.00;0.00;;;6.80;99.90;;;;;;5011063;28;20057;-88
2021/01/12 08:03:14;;;;;;;0.00;0.00;;;6.80;99.90;;;;;;5011277;28;20124;-88
2021/01/12 08:05:40;;;;;;;0.00;0.00;;;6.80;99.90;;;;;;5010979;28;20038;-89
2021/01/12 08:08:10;;;;;;;0.10;0.10;;;6.90;99.90;;;;;;5027367;28;20048;-88
2021/01/12 08:10:37;;;;;;;0.25;0.22;;;6.80;99.90;;;;;;5010324;28;20040;-88
2021/01/12 08:13:07;;;;;;;0.00;0.00;;;6.80;99.90;;;;;;5026646;28;20037;-88
2021/01/12 08:15:34;;;;;;;0.22;0.00;;;6.90;99.90;;;;;;5043220;28;20034;-88
2021/01/12 08:18:00;;;;;;;0.00;0.00;;;6.90;99.90;;;;;;5010070;28;20046;-89
2021/01/12 08:20:26;;;;;;;0.00;0.00;;;6.90;99.90;;;;;;5028176;28;20060;-89
2021/01/12 08:22:53;;;;;;;0.15;0.13;;;6.80;99.90;;;;;;5027562;28;20038;-88
2021/01/12 08:25:19;;;;;;;0.00;0.00;;;6.80;99.90;;;;;;5027932;28;20039;-91
2021/01/12 08:27:56;;;;;;;3.30;0.30;;;6.80;99.90;;;;;;5067943;28;20033;-89
2021/01/12 08:30:29;;;;;;;0.00;0.00;;;6.80;99.90;;;;;;5051726;28;20396;-88
2021/01/12 08:33:12;;;;;;;0.00;0.00;;;6.80;99.90;;;;;;5067758;28;20032;-87
2021/01/12 08:35:41;;;;;;;0.20;0.10;;;6.80;99.90;;;;;;5051121;28;20166;-89
2021/01/12 08:38:08;;;;;;;0.20;0.00;;;6.80;99.90;;;;;;5067235;28;20036;-88
2021/01/12 08:40:34;;;;;;;0.40;0.17;;;6.80;99.90;;;;;;5066991;28;20096;-88
2021/01/12 08:43:01;;;;;;;0.00;0.00;;;6.70;99.90;;;;;;5059067;28;20063;-88
2021/01/12 08:45:52;;;;;;;2.08;1.08;;;6.70;99.90;;;;;;5066840;28;20052;-87
2021/01/12 08:48:18;;;;;;;0.00;0.00;;;6.80;99.90;;;;;;5026229;28;20033;-91
2021/01/12 08:50:45;;;;;;;0.00;0.00;;;6.80;99.90;;;;;;4989832;28;20050;-88
2021/01/12 08:53:15;;;;;;;0.52;0.00;;;6.80;99.90;;;;;;4971095;28;20093;-88
2021/01/12 08:55:41;;;;;;;;;;;6.80;99.90;;;;;;4988002;28;20037;-91
2021/01/12 08:58:07;;;;;;;0.30;0.20;;;6.80;99.90;;;;;;5003607;28;19918;-89
2021/01/12 09:00:41;;;;;;;0.20;0.20;;;6.70;99.90;;;;;;4987510;28;20038;-88
2021/01/12 09:03:11;;;;;;;0.00;0.00;;;6.60;99.90;;;;;;4987598;28;20135;-87
2021/01/12 09:05:39;;;;;;;0.00;0.00;;;6.60;99.90;;;;;;5007132;28;20038;-87
2021/01/12 09:08:07;;;;;;;0.93;0.88;;;6.50;99.90;;;;;;4990974;28;20041;-89
2021/01/12 09:10:34;;;;;;;0.03;0.00;;;6.50;99.90;;;;;;4990477;28;20054;-88
2021/01/12 09:13:01;;;;;;;0.00;0.00;;;6.40;99.90;;;;;;4990484;28;20094;-90
2021/01/12 09:15:31;;;;;;;0.00;0.00;;;6.40;99.90;;;;;;5007146;28;20101;-89
2021/01/12 09:18:06;;;;;;;0.00;0.00;;;6.40;99.90;;;;;;5006996;28;20055;-88
2021/01/12 09:20:33;;;;;;;0.00;0.00;;;6.40;99.90;;;;;;5007362;28;20325;-88
2021/01/12 09:23:10;;;;;;;0.15;0.00;;;6.30;99.90;;;;;;4990546;28;20061;-88
2021/01/12 09:25:37;;;;;;;0.00;0.00;;;6.30;99.90;;;;;;5025700;28;20041;-89
2021/01/12 09:28:10;;;;;;;0.00;0.00;;;6.20;99.90;;;;;;5067006;28;20033;-89
2021/01/12 09:30:36;;;;;;;0.10;0.00;;;6.30;99.90;;;;;;5050004;28;20056;-88
2021/01/12 09:33:02;;;;;;;0.00;0.00;;;6.30;99.90;;;;;;5067075;28;20059;-86
2021/01/12 09:35:28;;;;;;;0.00;0.00;;;6.40;99.90;;;;;;5050322;28;20033;-89
2021/01/12 09:38:01;;;;;;;0.00;0.00;;;6.30;99.90;;;;;;5050225;28;20041;-88
2021/01/12 09:40:28;;;;;;;0.00;0.00;;;6.40;99.90;;;;;;5050502;28;20031;-88
2021/01/12 09:42:54;;;;;;;0.00;0.00;;;6.20;99.90;;;;;;5067062;28;20029;-89
2021/01/12 09:45:19;;;;;;;0.00;0.00;;;6.20;99.90;;;;;;5066984;28;20097;-89
2021/01/12 09:47:46;;;;;;;0.00;0.00;;;6.20;99.90;;;;;;5075854;28;20122;-90
2021/01/12 09:50:12;;;;;;;0.00;0.00;;;6.10;99.90;;;;;;5077509;28;20029;-89
2021/01/12 09:52:38;;;;;;;0.00;0.00;;;6.10;99.90;;;;;;5069883;28;20029;-88
2021/01/12 09:55:05;;;;;;;0.00;0.00;;;6.10;99.90;;;;;;5070123;28;20031;-89
2021/01/12 09:57:34;;;;;;;0.00;0.00;;;6.00;99.90;;;;;;5069899;28;20044;-89
2021/01/12 10:00:00;;;;;;;0.00;0.00;;;6.00;99.90;;;;;;5070014;28;20029;-90
2021/01/12 10:02:25;;;;;;;0.00;0.00;;;6.00;99.90;;;;;;5069881;28;20044;-89
2021/01/12 10:04:51;;;;;;;2.85;1.83;;;6.00;99.90;;;;;;5069826;28;20035;-88
2021/01/12 10:07:16;;;;;;;0.10;0.00;;;6.10;99.90;;;;;;5069556;28;20021;-88
2021/01/12 10:09:42;;;;;;;4.38;3.17;;;6.10;99.90;;;;;;5069737;28;20075;-86
2021/01/12 10:12:08;;;;;;;0.00;0.00;;;6.00;99.90;;;;;;5069678;28;20029;-87
2021/01/12 10:14:34;;;;;;;0.00;0.00;;;6.00;99.90;;;;;;5069940;28;20043;-91
2021/01/12 10:16:59;;;;;;;0.10;0.10;;;6.10;99.90;;;;;;5069639;28;20048;-89
2021/01/12 10:19:25;;;;;;;0.00;0.00;;;6.10;99.90;;;;;;5087112;28;20114;-89
2021/01/12 10:21:50;;;;;;;0.00;0.00;;;6.10;99.90;;;;;;5069864;28;20101;-88
2021/01/12 10:24:16;;;;;;;0.00;0.00;;;6.00;99.90;;;;;;5053154;28;20046;-88
2021/01/12 10:26:43;;;;;;;0.13;0.00;;;6.00;99.90;;;;;;5069771;28;20074;-89
2021/01/12 10:29:10;;;;;;;0.00;0.00;;;6.00;99.90;;;;;;5069968;28;20029;-88
2021/01/12 10:31:37;;;;;;;0.20;0.00;;;6.00;99.90;;;;;;5069992;28;20406;-90
2021/01/12 10:34:03;;;;;;;0.05;0.00;;;5.90;99.90;;;;;;5070836;28;20030;-89
2021/01/12 10:36:29;;;;;;;0.20;0.10;;;5.90;99.90;;;;;;5070519;28;20032;-89
2021/01/12 10:38:54;;;;;;;0.00;0.00;;;5.80;99.90;;;;;;5070035;28;20039;-90
2021/01/12 10:41:20;;;;;;;0.00;0.00;;;5.70;99.90;;;;;;5069568;28;20051;-89
2021/01/12 10:43:49;;;;;;;0.00;0.00;;;5.70;99.90;;;;;;5069238;28;20154;-88
2021/01/12 10:46:16;;;;;;;0.00;0.00;;;5.80;99.90;;;;;;5052639;28;20098;-88
2021/01/12 10:48:42;;;;;;;2.08;0.00;;;5.80;99.90;;;;;;5086865;28;20028;-88
2021/01/12 10:51:08;;;;;;;0.22;0.00;;;5.90;99.90;;;;;;5103651;28;20055;-87
2021/01/12 10:53:33;;;;;;;0.00;0.00;;;5.80;99.90;;;;;;5085773;28;20036;-87
2021/01/12 10:56:01;;;;;;;0.00;0.00;;;5.60;99.90;;;;;;5085505;28;20170;-89
2021/01/12 10:58:27;;;;;;;0.00;0.00;;;5.50;99.90;;;;;;5085164;28;20108;-87
2021/01/12 11:00:53;;;;;;;0.00;0.00;;;5.40;99.90;;;;;;5084977;28;20033;-88
2021/01/12 11:03:19;;;;;;;0.00;0.00;;;5.40;99.90;;;;;;5085226;28;20032;-88
2021/01/12 11:05:46;;;;;;;0.10;0.10;;;5.30;99.90;;;;;;5085362;28;20553;-88
2021/01/12 11:08:12;;;;;;;0.00;0.00;;;5.30;99.90;;;;;;5085219;28;20025;-88
2021/01/12 11:10:38;;;;;;;0.00;0.00;;;5.40;99.90;;;;;;5085131;28;20029;-88
2021/01/12 11:13:04;;;;;;;2.72;0.38;;;5.50;99.90;;;;;;5068243;28;20035;-89
2021/01/12 11:15:30;;;;;;;0.00;0.00;;;5.50;99.90;;;;;;5084873;28;20028;-88
2021/01/12 11:17:56;;;;;;;0.00;0.00;;;5.60;99.90;;;;;;5084447;28;20144;-88
2021/01/12 11:20:23;;;;;;;0.00;0.00;;;5.70;99.90;;;;;;5084780;28;20028;-89
2021/01/12 11:22:48;;;;;;;0.00;0.00;;;5.70;99.90;;;;;;5085023;28;20059;-88
2021/01/12 11:25:14;;;;;;;8.50;0.08;;;5.80;99.90;;;;;;5084824;28;20028;-86
2021/01/12 11:27:40;;;;;;;0.00;0.00;;;5.80;99.90;;;;;;5084005;28;20028;-88
2021/01/12 11:30:07;;;;;;;0.00;0.00;;;5.90;99.90;;;;;;5084709;28;20400;-87
2021/01/12 11:32:34;;;;;;;0.00;0.00;;;5.90;99.90;;;;;;5067913;28;20050;-87
2021/01/12 11:35:01;;;;;;;0.00;0.00;;;5.90;99.90;;;;;;5068614;28;20281;-90
2021/01/12 11:37:29;;;;;;;3.72;0.80;;;6.00;99.90;;;;;;5085029;28;20047;-88
2021/01/12 11:39:56;;;;;;;0.00;0.00;;;6.00;99.90;;;;;;5070431;28;20124;-87
2021/01/12 11:42:22;;;;;;;0.57;0.00;;;5.90;99.90;;;;;;5047668;28;20097;-88
2021/01/12 11:44:48;;;;;;;0.00;0.00;;;5.90;99.90;;;;;;5064543;28;20059;-90
2021/01/12 11:47:13;;;;;;;0.00;0.00;;;5.90;99.90;;;;;;5081414;28;20061;-87
2021/01/12 11:49:39;;;;;;;0.00;0.00;;;5.90;99.90;;;;;;5059573;28;20089;-88
2021/01/12 11:52:06;;;;;;;1.25;1.25;;;5.90;99.90;;;;;;5064367;28;20128;-85
2021/01/12 11:54:33;;;;;;;1.35;0.20;;;5.80;99.90;;;;;;5064021;28;20029;-88
2021/01/12 11:57:00;;;;;;;0.75;0.22;;;5.70;99.90;;;;;;5064462;28;20460;-88
2021/01/12 11:59:27;;;;;;;0.00;0.00;;;5.80;99.90;;;;;;5081168;28;20037;-86
2021/01/12 12:01:54;;;;;;;0.00;0.00;;;5.90;99.90;;;;;;5065491;28;20024;-88
2021/01/12 12:04:22;;;;;;;0.00;0.00;;;6.00;99.90;;;;;;5064659;28;20473;-88
2021/01/12 12:06:50;;;;;;;0.20;0.00;;;6.10;99.90;;;;;;5065444;28;20105;-86
2021/01/12 12:09:16;;;;;;;0.00;0.00;;;6.10;99.90;;;;;;5063937;28;20097;-87
2021/01/12 12:11:43;;;;;;;0.30;0.30;;;6.00;99.90;;;;;;5064501;28;20029;-88
2021/01/12 12:14:10;;;;;;;0.00;0.00;;;6.10;99.90;;;;;;5081090;28;20063;-87
2021/01/12 12:16:36;;;;;;;0.03;0.00;;;6.10;99.90;;;;;;5080792;28;20048;-86
2021/01/12 12:19:04;;;;;;;0.05;0.00;;;6.10;99.90;;;;;;5064496;28;20208;-88
2021/01/12 12:21:30;;;;;;;5.35;0.82;;;6.10;99.90;;;;;;5064319;28;20029;-88
2021/01/12 12:23:56;;;;;;;0.00;0.00;;;6.00;99.90;;;;;;5064516;28;20029;-88
2021/01/12 12:26:22;;;;;;;0.00;0.00;;;6.00;99.90;;;;;;5047971;28;20047;-88
2021/01/12 12:28:48;;;;;;;0.00;0.00;;;6.20;99.90;;;;;;5081384;28;20033;-88
2021/01/12 12:31:14;;;;;;;0.00;0.00;;;6.20;99.90;;;;;;5081389;28;20195;-88
2021/01/12 12:33:40;;;;;;;9.32;0.20;;;6.10;99.90;;;;;;5047572;28;20036;-87
2021/01/12 12:36:12;;;;;;;0.00;0.00;;;6.00;99.90;;;;;;5064568;28;20025;-87
2021/01/12 12:38:41;;;;;;;0.00;0.00;;;6.10;99.90;;;;;;5065720;28;20088;-87
2021/01/12 12:41:12;;;;;;;0.00;0.00;;;6.20;99.90;;;;;;5068252;28;20037;-88
2021/01/12 12:43:38;;;;;;;0.00;0.00;;;6.30;99.90;;;;;;5068093;28;20287;-87
2021/01/12 12:46:04;;;;;;;2.03;0.00;;;6.30;99.90;;;;;;5084701;28;20071;-87
2021/01/12 12:48:32;;;;;;;0.00;0.00;;;6.20;99.90;;;;;;5123283;28;20082;-86
2021/01/12 12:50:59;;;;;;;0.00;0.00;;;6.20;99.90;;;;;;5072251;28;20033;-88
2021/01/12 12:53:26;;;;;;;0.00;0.00;;;6.20;99.90;;;;;;5071533;28;20029;-88
2021/01/12 12:55:52;;;;;;;1.67;0.20;;;6.10;99.90;;;;;;5054644;28;20035;-86
2021/01/12 12:58:18;;;;;;;6.65;0.70;;;6.00;99.90;;;;;;5054666;28;20045;-86
2021/01/12 13:00:44;;;;;;;0.00;0.00;;;5.90;99.90;;;;;;5071326;28;20274;-87